sensor_id;sensor_type;location;lat;lon;timestamp;pressure;altitude;pressure_sealevel;temperature;humidity
41573;BME280;27286;47.870;19.006;2023-11-21T00:00:44;98682.66;;;6.79;89.22
41573;BME280;27286;47.870;19.006;2023-11-21T00:03:11;98715.34;;;7.04;88.95
41573;BME280;27286;47.870;19.006;2023-11-21T00:05:40;98676.88;;;6.73;88.65
41573;BME280;27286;47.870;19.006;2023-11-21T00:08:07;98635.50;;;6.49;88.38
41573;BME280;27286;47.870;19.006;2023-11-21T00:10:33;98726.13;;;6.93;88.44
41573;BME280;27286;47.870;19.006;2023-11-21T00:12:58;98686.59;;;6.66;89.03
41573;BME280;27286;47.870;19.006;2023-11-21T00:15:23;98655.28;;;6.50;89.15
41573;BME280;27286;47.870;19.006;2023-11-21T00:17:49;98725.41;;;6.89;88.88
41573;BME280;27286;47.870;19.006;2023-11-21T00:20:14;98661.94;;;6.57;88.48
41573;BME280;27286;47.870;19.006;2023-11-21T00:22:40;98702.81;;;6.93;88.09
41573;BME280;27286;47.870;19.006;2023-11-21T00:25:06;98727.16;;;7.11;87.85
41573;BME280;27286;47.870;19.006;2023-11-21T00:27:34;98701.13;;;6.92;87.49
41573;BME280;27286;47.870;19.006;2023-11-21T00:30:00;98591.97;;;6.39;86.98
41573;BME280;27286;47.870;19.006;2023-11-21T00:32:25;98688.03;;;6.97;87.04
41573;BME280;27286;47.870;19.006;2023-11-21T00:34:51;98655.44;;;6.69;87.25
41573;BME280;27286;47.870;19.006;2023-11-21T00:37:16;98730.22;;;7.20;87.28
41573;BME280;27286;47.870;19.006;2023-11-21T00:39:42;98642.88;;;6.60;87.79
41573;BME280;27286;47.870;19.006;2023-11-21T00:42:07;98686.06;;;6.80;88.44
41573;BME280;27286;47.870;19.006;2023-11-21T00:44:33;98651.28;;;6.65;88.63
41573;BME280;27286;47.870;19.006;2023-11-21T00:46:59;98723.53;;;7.15;88.89
41573;BME280;27286;47.870;19.006;2023-11-21T00:49:25;98694.03;;;6.97;89.53
41573;BME280;27286;47.870;19.006;2023-11-21T00:51:50;98643.41;;;6.68;89.61
41573;BME280;27286;47.870;19.006;2023-11-21T00:54:15;98749.75;;;7.29;89.88
41573;BME280;27286;47.870;19.006;2023-11-21T00:56:42;98704.78;;;6.86;90.33
41573;BME280;27286;47.870;19.006;2023-11-21T00:59:07;98683.72;;;6.74;90.55
41573;BME280;27286;47.870;19.006;2023-11-21T01:01:33;98693.25;;;6.72;91.23
41573;BME280;27286;47.870;19.006;2023-11-21T01:03:58;98711.03;;;6.81;91.25
41573;BME280;27286;47.870;19.006;2023-11-21T01:06:24;98646.97;;;6.42;91.73
41573;BME280;27286;47.870;19.006;2023-11-21T01:08:49;98738.81;;;6.99;92.08
41573;BME280;27286;47.870;19.006;2023-11-21T01:11:15;98697.84;;;6.65;92.18
41573;BME280;27286;47.870;19.006;2023-11-21T01:13:40;98734.84;;;6.90;92.51
41573;BME280;27286;47.870;19.006;2023-11-21T01:16:07;98695.53;;;6.57;92.34
41573;BME280;27286;47.870;19.006;2023-11-21T01:18:33;98620.72;;;6.06;92.09
41573;BME280;27286;47.870;19.006;2023-11-21T01:20:58;98692.25;;;6.52;92.33
41573;BME280;27286;47.870;19.006;2023-11-21T01:23:25;98715.94;;;6.65;92.03
41573;BME280;27286;47.870;19.006;2023-11-21T01:25:52;98664.66;;;6.29;91.79
41573;BME280;27286;47.870;19.006;2023-11-21T01:28:17;98730.38;;;6.71;91.92
41573;BME280;27286;47.870;19.006;2023-11-21T01:30:43;98622.56;;;6.02;91.71
41573;BME280;27286;47.870;19.006;2023-11-21T01:33:09;98683.97;;;6.44;91.23
41573;BME280;27286;47.870;19.006;2023-11-21T01:35:35;98685.41;;;6.51;90.94
41573;BME280;27286;47.870;19.006;2023-11-21T01:38:01;98617.06;;;6.12;91.09
41573;BME280;27286;47.870;19.006;2023-11-21T01:40:26;98598.53;;;6.00;91.24
41573;BME280;27286;47.870;19.006;2023-11-21T01:42:54;98714.06;;;6.69;91.24
41573;BME280;27286;47.870;19.006;2023-11-21T01:45:19;98641.69;;;6.22;91.29
41573;BME280;27286;47.870;19.006;2023-11-21T01:47:45;98697.72;;;6.68;91.74
41573;BME280;27286;47.870;19.006;2023-11-21T01:50:15;98711.88;;;6.81;91.65
41573;BME280;27286;47.870;19.006;2023-11-21T01:52:44;98659.34;;;6.57;91.38
41573;BME280;27286;47.870;19.006;2023-11-21T01:55:10;98578.13;;;6.16;91.31
41573;BME280;27286;47.870;19.006;2023-11-21T01:57:37;98666.78;;;6.65;91.58
41573;BME280;27286;47.870;19.006;2023-11-21T02:00:03;98588.28;;;6.21;91.56
41573;BME280;27286;47.870;19.006;2023-11-21T02:02:45;98699.22;;;6.97;91.42
41573;BME280;27286;47.870;19.006;2023-11-21T02:05:11;98643.69;;;6.60;91.45
41573;BME280;27286;47.870;19.006;2023-11-21T02:07:41;98589.66;;;6.31;91.05
41573;BME280;27286;47.870;19.006;2023-11-21T02:10:08;98640.22;;;6.61;91.14
41573;BME280;27286;47.870;19.006;2023-11-21T02:12:34;98684.03;;;6.88;90.78
41573;BME280;27286;47.870;19.006;2023-11-21T02:15:05;98580.72;;;6.16;90.99
41573;BME280;27286;47.870;19.006;2023-11-21T02:17:35;98608.94;;;6.22;91.00
41573;BME280;27286;47.870;19.006;2023-11-21T02:20:01;98653.94;;;6.40;91.18
41573;BME280;27286;47.870;19.006;2023-11-21T02:22:30;98644.09;;;6.26;91.55
41573;BME280;27286;47.870;19.006;2023-11-21T02:24:57;98631.72;;;6.11;91.24
41573;BME280;27286;47.870;19.006;2023-11-21T02:27:23;98587.84;;;5.85;91.53
41573;BME280;27286;47.870;19.006;2023-11-21T02:29:49;98686.47;;;6.46;91.79
41573;BME280;27286;47.870;19.006;2023-11-21T02:32:15;98577.69;;;5.80;91.89
41573;BME280;27286;47.870;19.006;2023-11-21T02:34:42;98608.19;;;5.95;92.20
41573;BME280;27286;47.870;19.006;2023-11-21T02:37:08;98612.44;;;5.96;92.37
41573;BME280;27286;47.870;19.006;2023-11-21T02:39:34;98671.34;;;6.35;92.17
41573;BME280;27286;47.870;19.006;2023-11-21T02:42:00;98548.94;;;5.66;91.59
41573;BME280;27286;47.870;19.006;2023-11-21T02:44:25;98502.56;;;5.39;91.69
41573;BME280;27286;47.870;19.006;2023-11-21T02:46:51;98653.53;;;6.27;91.25
41573;BME280;27286;47.870;19.006;2023-11-21T02:49:16;98653.59;;;6.26;91.20
41573;BME280;27286;47.870;19.006;2023-11-21T02:51:42;98609.19;;;5.91;91.72
41573;BME280;27286;47.870;19.006;2023-11-21T02:54:07;98644.00;;;6.04;91.77
41573;BME280;27286;47.870;19.006;2023-11-21T02:56:33;98583.28;;;5.68;92.62
41573;BME280;27286;47.870;19.006;2023-11-21T02:59:00;98610.72;;;5.72;92.23
41573;BME280;27286;47.870;19.006;2023-11-21T03:01:26;98595.75;;;5.57;92.65
41573;BME280;27286;47.870;19.006;2023-11-21T03:03:52;98592.56;;;5.49;92.47
41573;BME280;27286;47.870;19.006;2023-11-21T03:06:19;98601.88;;;5.53;92.71
41573;BME280;27286;47.870;19.006;2023-11-21T03:08:45;98614.78;;;5.53;92.76
41573;BME280;27286;47.870;19.006;2023-11-21T03:11:10;98590.50;;;5.33;92.64
41573;BME280;27286;47.870;19.006;2023-11-21T03:13:35;98586.78;;;5.42;94.33
41573;BME280;27286;47.870;19.006;2023-11-21T03:16:01;98586.88;;;5.39;94.47
41573;BME280;27286;47.870;19.006;2023-11-21T03:18:26;98596.38;;;5.38;93.85
41573;BME280;27286;47.870;19.006;2023-11-21T03:20:54;98655.06;;;5.83;93.33
41573;BME280;27286;47.870;19.006;2023-11-21T03:23:19;98564.75;;;5.32;93.96
41573;BME280;27286;47.870;19.006;2023-11-21T03:25:45;98647.38;;;5.82;93.34
41573;BME280;27286;47.870;19.006;2023-11-21T03:28:11;98559.59;;;5.32;93.71
41573;BME280;27286;47.870;19.006;2023-11-21T03:30:36;98606.13;;;5.55;92.85
41573;BME280;27286;47.870;19.006;2023-11-21T03:33:01;98642.09;;;5.85;93.58
41573;BME280;27286;47.870;19.006;2023-11-21T03:35:27;98580.78;;;5.41;93.37
41573;BME280;27286;47.870;19.006;2023-11-21T03:37:53;98564.00;;;5.28;93.17
41573;BME280;27286;47.870;19.006;2023-11-21T03:40:19;98607.22;;;5.48;93.18
41573;BME280;27286;47.870;19.006;2023-11-21T03:42:45;98541.56;;;5.05;94.15
41573;BME280;27286;47.870;19.006;2023-11-21T03:45:11;98609.75;;;5.50;93.82
41573;BME280;27286;47.870;19.006;2023-11-21T03:47:37;98576.66;;;5.36;93.40
41573;BME280;27286;47.870;19.006;2023-11-21T03:50:03;98594.25;;;5.50;94.18
41573;BME280;27286;47.870;19.006;2023-11-21T03:52:29;98594.84;;;5.58;94.41
41573;BME280;27286;47.870;19.006;2023-11-21T03:54:55;98558.53;;;5.37;93.36
41573;BME280;27286;47.870;19.006;2023-11-21T03:57:21;98592.16;;;5.61;94.09
41573;BME280;27286;47.870;19.006;2023-11-21T03:59:46;98547.22;;;5.41;93.87
41573;BME280;27286;47.870;19.006;2023-11-21T04:02:12;98600.56;;;5.66;93.66
41573;BME280;27286;47.870;19.006;2023-11-21T04:04:37;98585.50;;;5.54;91.98
41573;BME280;27286;47.870;19.006;2023-11-21T04:07:03;98534.41;;;5.13;89.82
41573;BME280;27286;47.870;19.006;2023-11-21T04:09:29;98573.66;;;5.23;90.03
41573;BME280;27286;47.870;19.006;2023-11-21T04:11:54;98574.28;;;5.03;89.49
41573;BME280;27286;47.870;19.006;2023-11-21T04:14:30;98626.81;;;4.74;92.88
41573;BME280;27286;47.870;19.006;2023-11-21T04:20:44;98517.03;;;3.51;96.09
41573;BME280;27286;47.870;19.006;2023-11-21T04:23:19;98394.13;;;2.67;97.31
41573;BME280;27286;47.870;19.006;2023-11-21T04:33:11;98448.59;;;2.82;100.00
41573;BME280;27286;47.870;19.006;2023-11-21T04:39:55;98554.88;;;3.47;100.00
41573;BME280;27286;47.870;19.006;2023-11-21T04:43:20;98669.84;;;4.43;100.00
41573;BME280;27286;47.870;19.006;2023-11-21T04:47:19;98480.72;;;3.30;100.00
41573;BME280;27286;47.870;19.006;2023-11-21T04:50:37;98594.50;;;4.05;100.00
41573;BME280;27286;47.870;19.006;2023-11-21T04:53:20;98447.03;;;3.09;100.00
41573;BME280;27286;47.870;19.006;2023-11-21T04:57:02;98697.53;;;4.66;100.00
41573;BME280;27286;47.870;19.006;2023-11-21T05:00:31;98701.97;;;4.90;100.00
41573;BME280;27286;47.870;19.006;2023-11-21T05:03:43;98468.34;;;3.45;100.00
41573;BME280;27286;47.870;19.006;2023-11-21T05:06:28;98692.41;;;4.94;100.00
41573;BME280;27286;47.870;19.006;2023-11-21T05:09:32;98649.13;;;4.46;100.00
41573;BME280;27286;47.870;19.006;2023-11-21T05:12:21;98485.75;;;3.35;100.00
41573;BME280;27286;47.870;19.006;2023-11-21T05:15:22;98692.91;;;4.77;100.00
41573;BME280;27286;47.870;19.006;2023-11-21T05:18:36;98515.53;;;3.75;100.00
41573;BME280;27286;47.870;19.006;2023-11-21T05:22:19;98477.75;;;3.46;100.00
41573;BME280;27286;47.870;19.006;2023-11-21T05:25:45;98682.78;;;4.71;100.00
41573;BME280;27286;47.870;19.006;2023-11-21T05:29:20;98544.56;;;3.80;100.00
41573;BME280;27286;47.870;19.006;2023-11-21T05:32:32;98578.25;;;4.03;100.00
41573;BME280;27286;47.870;19.006;2023-11-21T05:35:38;98465.53;;;3.52;100.00
41573;BME280;27286;47.870;19.006;2023-11-21T05:38:56;98663.13;;;4.95;100.00
41573;BME280;27286;47.870;19.006;2023-11-21T05:41:48;98565.03;;;4.43;100.00
41573;BME280;27286;47.870;19.006;2023-11-21T05:44:15;98661.50;;;5.19;100.00
41573;BME280;27286;47.870;19.006;2023-11-21T05:46:44;98424.66;;;3.73;100.00
41573;BME280;27286;47.870;19.006;2023-11-21T05:49:13;98635.28;;;5.06;100.00
41573;BME280;27286;47.870;19.006;2023-11-21T05:52:06;98602.28;;;4.89;100.00
41573;BME280;27286;47.870;19.006;2023-11-21T05:58:21;98594.09;;;4.76;99.80
41573;BME280;27286;47.870;19.006;2023-11-21T06:00:49;98578.09;;;4.65;99.83
41573;BME280;27286;47.870;19.006;2023-11-21T06:03:26;98586.88;;;4.60;100.00
41573;BME280;27286;47.870;19.006;2023-11-21T06:06:34;98629.94;;;4.84;99.02
41573;BME280;27286;47.870;19.006;2023-11-21T06:09:22;98542.94;;;4.35;97.02
41573;BME280;27286;47.870;19.006;2023-11-21T06:12:09;98527.94;;;4.19;96.53
41573;BME280;27286;47.870;19.006;2023-11-21T06:14:57;98719.91;;;5.23;97.20
41573;BME280;27286;47.870;19.006;2023-11-21T06:17:51;98634.25;;;4.56;97.68
41573;BME280;27286;47.870;19.006;2023-11-21T06:21:00;98667.28;;;4.72;98.50
41573;BME280;27286;47.870;19.006;2023-11-21T06:23:34;98605.47;;;4.41;98.29
41573;BME280;27286;47.870;19.006;2023-11-21T06:26:10;98662.00;;;4.75;98.28
41573;BME280;27286;47.870;19.006;2023-11-21T06:28:49;98666.03;;;4.84;97.89
41573;BME280;27286;47.870;19.006;2023-11-21T06:31:16;98752.19;;;5.34;97.88
41573;BME280;27286;47.870;19.006;2023-11-21T06:33:47;98598.66;;;4.39;98.64
41573;BME280;27286;47.870;19.006;2023-11-21T06:37:01;98617.66;;;4.64;99.22
41573;BME280;27286;47.870;19.006;2023-11-21T06:39:38;98750.94;;;5.48;99.12
41573;BME280;27286;47.870;19.006;2023-11-21T06:43:12;98656.28;;;4.94;99.16
41573;BME280;27286;47.870;19.006;2023-11-21T06:45:43;98578.66;;;4.47;98.93
41573;BME280;27286;47.870;19.006;2023-11-21T06:48:20;98769.66;;;5.54;97.38
41573;BME280;27286;47.870;19.006;2023-11-21T06:50:49;98775.06;;;5.47;96.33
41573;BME280;27286;47.870;19.006;2023-11-21T06:53:15;98727.75;;;5.18;96.33
41573;BME280;27286;47.870;19.006;2023-11-21T06:55:45;98753.16;;;5.32;97.27
41573;BME280;27286;47.870;19.006;2023-11-21T06:58:21;98684.03;;;4.86;97.21
41573;BME280;27286;47.870;19.006;2023-11-21T07:01:35;98776.00;;;5.44;98.01
41573;BME280;27286;47.870;19.006;2023-11-21T07:04:50;98783.66;;;5.47;98.08
41573;BME280;27286;47.870;19.006;2023-11-21T07:08:12;98765.09;;;5.34;98.20
41573;BME280;27286;47.870;19.006;2023-11-21T07:14:24;98788.28;;;5.64;98.41
41573;BME280;27286;47.870;19.006;2023-11-21T07:17:36;98639.56;;;4.79;97.96
41573;BME280;27286;47.870;19.006;2023-11-21T07:24:00;98791.66;;;5.66;97.95
41573;BME280;27286;47.870;19.006;2023-11-21T07:30:36;98790.03;;;5.91;98.54
41573;BME280;27286;47.870;19.006;2023-11-21T07:33:04;98702.03;;;5.43;97.68
41573;BME280;27286;47.870;19.006;2023-11-21T07:35:34;98749.16;;;5.76;97.75
41573;BME280;27286;47.870;19.006;2023-11-21T07:38:03;98749.84;;;5.81;97.42
41573;BME280;27286;47.870;19.006;2023-11-21T07:40:29;98673.19;;;5.30;97.02
41573;BME280;27286;47.870;19.006;2023-11-21T07:42:56;98715.53;;;5.51;96.68
41573;BME280;27286;47.870;19.006;2023-11-21T07:45:23;98687.03;;;5.28;96.68
41573;BME280;27286;47.870;19.006;2023-11-21T07:47:48;98700.88;;;5.52;95.97
41573;BME280;27286;47.870;19.006;2023-11-21T07:50:14;98786.88;;;6.08;95.98
41573;BME280;27286;47.870;19.006;2023-11-21T07:52:39;98691.31;;;5.55;95.94
41573;BME280;27286;47.870;19.006;2023-11-21T07:55:05;98796.56;;;6.28;95.59
41573;BME280;27286;47.870;19.006;2023-11-21T07:57:30;98671.41;;;5.59;95.37
41573;BME280;27286;47.870;19.006;2023-11-21T07:59:56;98680.47;;;5.70;94.71
41573;BME280;27286;47.870;19.006;2023-11-21T08:02:21;98750.66;;;6.10;94.72
41573;BME280;27286;47.870;19.006;2023-11-21T08:04:47;98766.44;;;6.27;93.51
41573;BME280;27286;47.870;19.006;2023-11-21T08:07:15;98725.72;;;6.09;93.30
41573;BME280;27286;47.870;19.006;2023-11-21T08:09:42;98795.81;;;6.49;94.45
41573;BME280;27286;47.870;19.006;2023-11-21T08:12:07;98746.78;;;6.21;94.08
41573;BME280;27286;47.870;19.006;2023-11-21T08:14:33;98697.94;;;5.90;94.78
41573;BME280;27286;47.870;19.006;2023-11-21T08:16:58;98713.94;;;6.00;94.39
41573;BME280;27286;47.870;19.006;2023-11-21T08:19:24;98730.66;;;6.15;95.07
41573;BME280;27286;47.870;19.006;2023-11-21T08:21:52;98733.97;;;6.18;94.77
41573;BME280;27286;47.870;19.006;2023-11-21T08:24:20;98719.84;;;6.03;94.90
41573;BME280;27286;47.870;19.006;2023-11-21T08:26:45;98781.19;;;6.48;94.72
41573;BME280;27286;47.870;19.006;2023-11-21T08:29:11;98729.09;;;6.11;95.15
41573;BME280;27286;47.870;19.006;2023-11-21T08:31:36;98728.06;;;6.15;96.05
41573;BME280;27286;47.870;19.006;2023-11-21T08:34:03;98703.66;;;5.98;95.61
41573;BME280;27286;47.870;19.006;2023-11-21T08:36:28;98739.69;;;6.28;95.85
41573;BME280;27286;47.870;19.006;2023-11-21T08:38:53;98760.63;;;6.45;95.93
41573;BME280;27286;47.870;19.006;2023-11-21T08:41:19;98753.97;;;6.38;95.42
41573;BME280;27286;47.870;19.006;2023-11-21T08:43:49;98710.09;;;6.12;95.76
41573;BME280;27286;47.870;19.006;2023-11-21T08:46:16;98742.78;;;6.38;96.39
41573;BME280;27286;47.870;19.006;2023-11-21T08:48:43;98705.66;;;6.15;95.97
41573;BME280;27286;47.870;19.006;2023-11-21T08:51:10;98786.34;;;6.73;95.54
41573;BME280;27286;47.870;19.006;2023-11-21T08:53:36;98664.97;;;5.97;95.49
41573;BME280;27286;47.870;19.006;2023-11-21T08:56:03;98774.25;;;6.74;95.67
41573;BME280;27286;47.870;19.006;2023-11-21T08:58:30;98761.66;;;6.64;95.41
41573;BME280;27286;47.870;19.006;2023-11-21T09:00:56;98764.28;;;6.63;95.06
41573;BME280;27286;47.870;19.006;2023-11-21T09:03:21;98759.78;;;6.68;94.03
41573;BME280;27286;47.870;19.006;2023-11-21T09:05:47;98776.31;;;6.87;93.01
41573;BME280;27286;47.870;19.006;2023-11-21T09:08:12;98713.72;;;6.54;92.35
41573;BME280;27286;47.870;19.006;2023-11-21T09:10:37;98711.66;;;6.64;92.17
41573;BME280;27286;47.870;19.006;2023-11-21T09:13:04;98755.59;;;6.89;92.11
41573;BME280;27286;47.870;19.006;2023-11-21T09:15:30;98771.59;;;6.99;92.11
41573;BME280;27286;47.870;19.006;2023-11-21T09:17:55;98740.09;;;6.87;93.20
41573;BME280;27286;47.870;19.006;2023-11-21T09:20:21;98773.03;;;7.07;92.75
41573;BME280;27286;47.870;19.006;2023-11-21T09:22:49;98793.94;;;7.24;92.54
41573;BME280;27286;47.870;19.006;2023-11-21T09:25:14;98776.22;;;7.14;92.58
41573;BME280;27286;47.870;19.006;2023-11-21T09:27:40;98713.75;;;6.78;93.54
41573;BME280;27286;47.870;19.006;2023-11-21T09:30:07;98791.88;;;7.33;93.43
41573;BME280;27286;47.870;19.006;2023-11-21T09:32:37;98696.13;;;6.87;92.63
41573;BME280;27286;47.870;19.006;2023-11-21T09:35:06;98721.47;;;7.01;92.58
41573;BME280;27286;47.870;19.006;2023-11-21T09:37:33;98769.38;;;7.35;93.07
41573;BME280;27286;47.870;19.006;2023-11-21T09:39:59;98739.78;;;7.18;92.08
41573;BME280;27286;47.870;19.006;2023-11-21T09:42:39;98710.91;;;7.07;91.28
41573;BME280;27286;47.870;19.006;2023-11-21T09:45:15;98771.63;;;7.44;91.28
41573;BME280;27286;47.870;19.006;2023-11-21T09:47:43;98731.97;;;7.20;90.36
41573;BME280;27286;47.870;19.006;2023-11-21T09:50:09;98731.03;;;7.22;90.18
41573;BME280;27286;47.870;19.006;2023-11-21T09:52:53;98757.69;;;7.46;91.55
41573;BME280;27286;47.870;19.006;2023-11-21T09:55:21;98716.44;;;7.20;90.74
41573;BME280;27286;47.870;19.006;2023-11-21T09:57:47;98751.66;;;7.46;91.17
41573;BME280;27286;47.870;19.006;2023-11-21T10:00:14;98714.41;;;7.28;90.94
41573;BME280;27286;47.870;19.006;2023-11-21T10:02:43;98709.16;;;7.30;91.87
41573;BME280;27286;47.870;19.006;2023-11-21T10:05:09;98701.66;;;7.23;90.34
41573;BME280;27286;47.870;19.006;2023-11-21T10:07:35;98721.38;;;7.48;90.65
41573;BME280;27286;47.870;19.006;2023-11-21T10:10:01;98760.97;;;7.72;88.29
41573;BME280;27286;47.870;19.006;2023-11-21T10:12:28;98685.16;;;7.26;89.83
41573;BME280;27286;47.870;19.006;2023-11-21T10:14:58;98760.03;;;7.74;89.09
41573;BME280;27286;47.870;19.006;2023-11-21T10:17:26;98742.91;;;7.70;88.32
41573;BME280;27286;47.870;19.006;2023-11-21T10:19:56;98670.56;;;7.23;89.09
41573;BME280;27286;47.870;19.006;2023-11-21T10:22:22;98751.22;;;7.78;88.25
41573;BME280;27286;47.870;19.006;2023-11-21T10:24:49;98640.13;;;7.08;88.41
41573;BME280;27286;47.870;19.006;2023-11-21T10:27:14;98687.97;;;7.42;87.99
41573;BME280;27286;47.870;19.006;2023-11-21T10:29:40;98690.94;;;7.53;88.55
41573;BME280;27286;47.870;19.006;2023-11-21T10:32:07;98711.50;;;7.58;88.47
41573;BME280;27286;47.870;19.006;2023-11-21T10:34:33;98734.00;;;7.77;89.01
41573;BME280;27286;47.870;19.006;2023-11-21T10:36:59;98678.91;;;7.52;89.75
41573;BME280;27286;47.870;19.006;2023-11-21T10:39:35;98618.13;;;7.18;89.10
41573;BME280;27286;47.870;19.006;2023-11-21T10:42:01;98622.16;;;7.26;88.83
41573;BME280;27286;47.870;19.006;2023-11-21T10:44:26;98634.50;;;7.41;89.27
41573;BME280;27286;47.870;19.006;2023-11-21T10:46:53;98662.88;;;7.64;89.95
41573;BME280;27286;47.870;19.006;2023-11-21T10:49:25;98669.34;;;7.74;88.96
41573;BME280;27286;47.870;19.006;2023-11-21T10:51:52;98731.47;;;8.17;89.28
41573;BME280;27286;47.870;19.006;2023-11-21T10:54:22;98716.19;;;8.10;88.80
41573;BME280;27286;47.870;19.006;2023-11-21T10:56:50;98726.47;;;8.32;89.58
41573;BME280;27286;47.870;19.006;2023-11-21T10:59:19;98723.47;;;8.43;89.21
41573;BME280;27286;47.870;19.006;2023-11-21T11:01:46;98722.91;;;8.55;88.66
41573;BME280;27286;47.870;19.006;2023-11-21T11:04:14;98679.50;;;8.40;88.71
41573;BME280;27286;47.870;19.006;2023-11-21T11:06:46;98607.72;;;8.01;88.80
41573;BME280;27286;47.870;19.006;2023-11-21T11:09:17;98660.75;;;8.33;87.64
41573;BME280;27286;47.870;19.006;2023-11-21T11:11:43;98639.13;;;8.34;87.23
41573;BME280;27286;47.870;19.006;2023-11-21T11:14:12;98703.38;;;8.86;87.39
41573;BME280;27286;47.870;19.006;2023-11-21T11:16:41;98715.72;;;8.99;86.97
41573;BME280;27286;47.870;19.006;2023-11-21T11:19:08;98682.34;;;8.92;86.53
41573;BME280;27286;47.870;19.006;2023-11-21T11:21:43;98681.44;;;8.93;86.41
41573;BME280;27286;47.870;19.006;2023-11-21T11:27:24;98710.81;;;9.12;85.02
41573;BME280;27286;47.870;19.006;2023-11-21T11:33:50;98710.31;;;9.04;85.58
41573;BME280;27286;47.870;19.006;2023-11-21T11:36:15;98710.38;;;9.02;85.34
41573;BME280;27286;47.870;19.006;2023-11-21T11:38:45;98646.44;;;8.64;85.17
41573;BME280;27286;47.870;19.006;2023-11-21T11:41:11;98665.97;;;8.71;85.19
41573;BME280;27286;47.870;19.006;2023-11-21T11:43:37;98709.75;;;8.97;84.86
41573;BME280;27286;47.870;19.006;2023-11-21T11:46:10;98697.00;;;8.93;84.02
41573;BME280;27286;47.870;19.006;2023-11-21T11:48:39;98673.66;;;8.74;84.58
41573;BME280;27286;47.870;19.006;2023-11-21T11:51:13;98702.31;;;8.90;85.76
41573;BME280;27286;47.870;19.006;2023-11-21T11:53:47;98698.09;;;8.87;84.77
41573;BME280;27286;47.870;19.006;2023-11-21T11:56:29;98700.91;;;8.83;84.75
41573;BME280;27286;47.870;19.006;2023-11-21T11:58:59;98647.81;;;8.52;84.70
41573;BME280;27286;47.870;19.006;2023-11-21T12:01:27;98654.75;;;8.52;84.38
41573;BME280;27286;47.870;19.006;2023-11-21T12:06:46;98692.47;;;8.40;84.87
41573;BME280;27286;47.870;19.006;2023-11-21T12:09:21;98696.09;;;8.36;85.95
41573;BME280;27286;47.870;19.006;2023-11-21T12:11:48;98679.31;;;8.44;85.68
41573;BME280;27286;47.870;19.006;2023-11-21T12:14:14;98657.13;;;8.37;85.82
41573;BME280;27286;47.870;19.006;2023-11-21T12:16:40;98602.75;;;7.97;85.84
41573;BME280;27286;47.870;19.006;2023-11-21T12:19:06;98671.19;;;8.32;85.89
41573;BME280;27286;47.870;19.006;2023-11-21T12:21:31;98640.75;;;8.17;85.80
41573;BME280;27286;47.870;19.006;2023-11-21T12:23:58;98694.31;;;8.57;85.83
41573;BME280;27286;47.870;19.006;2023-11-21T12:26:26;98667.69;;;8.33;85.77
41573;BME280;27286;47.870;19.006;2023-11-21T12:28:52;98643.47;;;8.13;85.24
41573;BME280;27286;47.870;19.006;2023-11-21T12:31:21;98653.25;;;8.27;85.27
41573;BME280;27286;47.870;19.006;2023-11-21T12:33:47;98627.38;;;8.26;84.50
41573;BME280;27286;47.870;19.006;2023-11-21T12:36:12;98687.03;;;8.65;84.62
41573;BME280;27286;47.870;19.006;2023-11-21T12:38:38;98682.16;;;8.38;84.46
41573;BME280;27286;47.870;19.006;2023-11-21T12:41:03;98627.91;;;8.13;84.56
41573;BME280;27286;47.870;19.006;2023-11-21T12:43:30;98603.50;;;7.99;84.87
41573;BME280;27286;47.870;19.006;2023-11-21T12:46:09;98688.63;;;8.49;85.61
41573;BME280;27286;47.870;19.006;2023-11-21T12:48:38;98653.63;;;8.18;86.22
41573;BME280;27286;47.870;19.006;2023-11-21T12:51:10;98684.28;;;8.49;85.95
41573;BME280;27286;47.870;19.006;2023-11-21T12:53:37;98695.34;;;8.53;85.57
41573;BME280;27286;47.870;19.006;2023-11-21T12:56:07;98668.59;;;8.32;85.81
41573;BME280;27286;47.870;19.006;2023-11-21T12:58:38;98697.81;;;8.56;85.94
41573;BME280;27286;47.870;19.006;2023-11-21T13:01:07;98699.38;;;8.60;86.47
41573;BME280;27286;47.870;19.006;2023-11-21T13:03:43;98699.22;;;8.63;85.04
41573;BME280;27286;47.870;19.006;2023-11-21T13:06:10;98662.63;;;8.50;83.73
41573;BME280;27286;47.870;19.006;2023-11-21T13:08:37;98682.81;;;8.62;83.98
41573;BME280;27286;47.870;19.006;2023-11-21T13:11:05;98702.13;;;8.76;83.41
41573;BME280;27286;47.870;19.006;2023-11-21T13:13:31;98604.69;;;8.50;82.49
41573;BME280;27286;47.870;19.006;2023-11-21T13:16:00;98704.50;;;8.99;82.79
41573;BME280;27286;47.870;19.006;2023-11-21T13:18:27;98671.47;;;8.65;83.50
41573;BME280;27286;47.870;19.006;2023-11-21T13:20:58;98709.69;;;8.80;83.76
41573;BME280;27286;47.870;19.006;2023-11-21T13:23:24;98712.69;;;8.71;84.51
41573;BME280;27286;47.870;19.006;2023-11-21T13:25:50;98664.78;;;8.40;84.42
41573;BME280;27286;47.870;19.006;2023-11-21T13:28:16;98681.69;;;8.49;84.69
41573;BME280;27286;47.870;19.006;2023-11-21T13:30:43;98666.00;;;8.32;85.09
41573;BME280;27286;47.870;19.006;2023-11-21T13:33:10;98708.00;;;8.60;85.13
41573;BME280;27286;47.870;19.006;2023-11-21T13:35:43;98686.88;;;8.29;85.65
41573;BME280;27286;47.870;19.006;2023-11-21T13:38:16;98697.91;;;8.34;85.34
41573;BME280;27286;47.870;19.006;2023-11-21T13:40:52;98679.78;;;8.13;86.34
41573;BME280;27286;47.870;19.006;2023-11-21T13:43:24;98667.66;;;7.94;86.93
41573;BME280;27286;47.870;19.006;2023-11-21T13:45:53;98637.16;;;7.80;87.25
41573;BME280;27286;47.870;19.006;2023-11-21T13:48:29;98694.34;;;8.16;86.86
41573;BME280;27286;47.870;19.006;2023-11-21T13:50:57;98672.06;;;8.12;86.57
41573;BME280;27286;47.870;19.006;2023-11-21T13:53:24;98701.84;;;8.22;86.91
41573;BME280;27286;47.870;19.006;2023-11-21T13:55:51;98692.47;;;8.20;86.86
41573;BME280;27286;47.870;19.006;2023-11-21T13:58:19;98681.47;;;7.94;87.20
41573;BME280;27286;47.870;19.006;2023-11-21T14:00:48;98711.19;;;8.06;87.82
41573;BME280;27286;47.870;19.006;2023-11-21T14:03:25;98690.84;;;7.97;87.96
41573;BME280;27286;47.870;19.006;2023-11-21T14:06:03;98667.00;;;7.89;87.58